createdAt,value
2023-02-13T00:00:35.424Z,92.00
2023-02-13T00:03:02.977Z,91.60
2023-02-13T00:05:30.274Z,91.30
2023-02-13T00:07:57.507Z,91.30
2023-02-13T00:10:24.567Z,91.40
2023-02-13T00:12:51.663Z,91.20
2023-02-13T00:15:18.925Z,91.40
2023-02-13T00:17:46.168Z,92.00
2023-02-13T00:20:13.421Z,92.80
2023-02-13T00:22:40.627Z,92.90
2023-02-13T00:25:08.552Z,93.40
2023-02-13T00:27:35.684Z,93.20
2023-02-13T00:30:04.265Z,93.20
2023-02-13T00:32:31.936Z,93.40
2023-02-13T00:34:59.144Z,93.80
2023-02-13T00:37:26.325Z,93.60
2023-02-13T00:39:53.748Z,93.30
2023-02-13T00:42:24.267Z,93.10
2023-02-13T00:44:51.436Z,93.20
2023-02-13T00:47:19.274Z,93.00
2023-02-13T00:49:46.377Z,92.60
2023-02-13T00:52:13.828Z,92.40
2023-02-13T00:54:41.029Z,92.40
2023-02-13T00:57:08.115Z,92.30
2023-02-13T00:59:35.337Z,92.80
2023-02-13T01:02:04.938Z,92.60
2023-02-13T01:04:32.085Z,92.20
2023-02-13T01:06:59.137Z,92.00
2023-02-13T01:09:26.123Z,92.00
2023-02-13T01:11:53.348Z,92.00
2023-02-13T01:14:20.418Z,92.00
2023-02-13T01:16:47.469Z,92.00
2023-02-13T01:19:14.574Z,92.50
2023-02-13T01:21:43.609Z,92.40
2023-02-13T01:24:10.789Z,92.40
2023-02-13T01:26:38.069Z,92.30
2023-02-13T01:29:05.592Z,92.80
2023-02-13T01:31:32.918Z,92.60
2023-02-13T01:34:00.678Z,92.20
2023-02-13T01:36:28.092Z,91.90
2023-02-13T01:38:57.127Z,91.80
2023-02-13T01:41:25.763Z,91.80
2023-02-13T01:44:01.266Z,92.20
2023-02-13T01:46:35.534Z,92.40
2023-02-13T01:49:18.854Z,92.70
2023-02-13T01:51:47.542Z,92.70
2023-02-13T01:54:17.718Z,92.80
2023-02-13T01:56:49.565Z,93.20
2023-02-13T01:59:25.311Z,93.30
2023-02-13T02:01:53.282Z,93.60
2023-02-13T02:04:27.092Z,93.60
2023-02-13T02:06:58.484Z,93.40
2023-02-13T02:09:31.519Z,93.20
2023-02-13T02:12:27.750Z,93.40
2023-02-13T02:14:55.930Z,93.40
2023-02-13T02:17:25.088Z,92.90
2023-02-13T02:19:52.025Z,92.80
2023-02-13T02:22:18.915Z,93.10
2023-02-13T02:25:22.886Z,93.30
2023-02-13T02:28:14.562Z,93.80
2023-02-13T02:31:02.993Z,94.00
2023-02-13T02:34:07.265Z,93.60
2023-02-13T02:36:53.258Z,93.40
2023-02-13T02:39:32.595Z,93.30
2023-02-13T02:42:19.619Z,93.20
2023-02-13T02:45:06.061Z,93.10
2023-02-13T02:48:09.810Z,93.10
2023-02-13T02:50:48.990Z,93.30
2023-02-13T02:53:38.870Z,93.30
2023-02-13T02:56:25.782Z,93.80
2023-02-13T02:59:14.286Z,93.70
2023-02-13T03:02:01.500Z,93.70
2023-02-13T03:05:20.117Z,93.30
2023-02-13T03:07:47.263Z,93.10
2023-02-13T03:10:42.719Z,93.30
2023-02-13T03:13:21.384Z,93.50
2023-02-13T03:16:13.587Z,93.60
2023-02-13T03:19:03.709Z,93.90
2023-02-13T03:25:36.924Z,93.70
2023-02-13T03:28:36.472Z,93.80
2023-02-13T03:31:36.637Z,94.00
2023-02-13T03:34:10.613Z,94.30
2023-02-13T03:37:18.422Z,94.40
2023-02-13T03:40:02.972Z,94.30
2023-02-13T03:43:21.014Z,94.20
2023-02-13T03:45:54.781Z,94.20
2023-02-13T03:48:49.107Z,94.00
2023-02-13T03:51:31.821Z,93.90
2023-02-13T03:54:05.473Z,94.00
2023-02-13T03:56:53.344Z,94.00
2023-02-13T03:59:26.251Z,94.10
2023-02-13T04:02:17.055Z,94.20
2023-02-13T04:04:58.271Z,94.40
2023-02-13T04:07:32.997Z,94.60
2023-02-13T04:10:12.997Z,94.70
2023-02-13T04:12:49.296Z,94.70
2023-02-13T04:15:21.736Z,94.60
2023-02-13T04:18:10.826Z,94.50
2023-02-13T04:20:39.170Z,94.40
2023-02-13T04:23:09.084Z,94.30
2023-02-13T04:25:38.866Z,94.30
2023-02-13T04:28:06.441Z,94.10
2023-02-13T04:30:34.150Z,93.90
2023-02-13T04:33:01.316Z,94.10
2023-02-13T04:35:28.450Z,94.20
2023-02-13T04:37:55.571Z,94.30
2023-02-13T04:40:22.613Z,94.10
2023-02-13T04:42:50.172Z,94.20
2023-02-13T04:45:17.833Z,94.10
2023-02-13T04:47:51.481Z,94.20
2023-02-13T04:50:19.556Z,94.10
2023-02-13T04:52:46.700Z,94.30
2023-02-13T04:55:14.416Z,94.20
2023-02-13T04:57:41.415Z,94.20
2023-02-13T05:00:09.328Z,94.10
2023-02-13T05:02:38.663Z,94.10
2023-02-13T05:05:06.594Z,94.10
2023-02-13T05:07:33.638Z,94.20
2023-02-13T05:10:00.595Z,94.30
2023-02-13T05:12:27.643Z,94.40
2023-02-13T05:14:56.435Z,94.80
2023-02-13T05:17:23.564Z,94.30
2023-02-13T05:19:50.559Z,94.40
2023-02-13T05:22:36.038Z,94.30
2023-02-13T05:25:03.186Z,94.20
2023-02-13T05:27:30.182Z,95.00
2023-02-13T05:29:57.285Z,94.50
2023-02-13T05:32:24.276Z,94.40
2023-02-13T05:34:51.271Z,94.30
2023-02-13T05:37:18.421Z,94.40
2023-02-13T05:39:45.574Z,94.50
2023-02-13T05:42:12.617Z,94.40
2023-02-13T05:44:39.613Z,94.60
2023-02-13T05:47:06.559Z,94.50
2023-02-13T05:49:33.658Z,94.30
2023-02-13T05:52:00.713Z,94.10
2023-02-13T05:54:27.702Z,94.20
2023-02-13T05:56:54.691Z,94.20
2023-02-13T05:59:23.885Z,94.20
2023-02-13T06:01:51.192Z,94.20
2023-02-13T06:04:18.311Z,94.00
2023-02-13T06:06:45.800Z,94.00
2023-02-13T06:09:12.991Z,94.00
2023-02-13T06:11:40.047Z,93.90
2023-02-13T06:14:07.136Z,93.90
2023-02-13T06:16:34.896Z,93.90
2023-02-13T06:19:01.998Z,93.90
2023-02-13T06:21:29.045Z,93.80
2023-02-13T06:23:56.091Z,93.70
2023-02-13T06:26:24.377Z,93.70
2023-02-13T06:28:51.726Z,93.60
2023-02-13T06:31:18.835Z,93.60
2023-02-13T06:33:46.018Z,93.70
2023-02-13T06:36:13.011Z,93.70
2023-02-13T06:38:40.212Z,93.70
2023-02-13T06:41:07.366Z,93.70
2023-02-13T06:43:34.573Z,93.70
2023-02-13T06:46:05.861Z,93.80
2023-02-13T06:48:32.902Z,93.70
2023-02-13T06:51:02.855Z,93.70
2023-02-13T06:53:30.891Z,93.80
2023-02-13T06:55:58.348Z,93.80
2023-02-13T06:58:26.726Z,93.80
2023-02-13T07:00:53.836Z,93.70
2023-02-13T07:03:20.932Z,93.60
2023-02-13T07:05:48.179Z,93.50
2023-02-13T07:08:15.230Z,93.40
2023-02-13T07:10:42.417Z,93.30
2023-02-13T07:13:10.332Z,93.10
2023-02-13T07:15:38.623Z,93.00
2023-02-13T07:18:06.478Z,93.00
2023-02-13T07:20:33.644Z,93.00
2023-02-13T07:23:02.869Z,93.00
2023-02-13T07:25:30.327Z,93.30
2023-02-13T07:28:02.795Z,93.40
2023-02-13T07:30:31.255Z,92.90
2023-02-13T07:33:05.613Z,92.70
2023-02-13T07:35:33.420Z,92.40
2023-02-13T07:38:01.006Z,92.40
2023-02-13T07:40:28.367Z,92.70
2023-02-13T07:42:56.220Z,92.50
2023-02-13T07:45:23.402Z,92.20
2023-02-13T07:47:50.371Z,92.20
2023-02-13T07:50:19.227Z,92.20
2023-02-13T07:53:00.460Z,92.10
2023-02-13T07:55:29.200Z,91.90
2023-02-13T07:57:56.901Z,92.00
2023-02-13T08:00:24.167Z,91.90
2023-02-13T08:02:51.311Z,91.90
2023-02-13T08:05:18.459Z,92.00
2023-02-13T08:07:45.568Z,92.30
2023-02-13T08:10:33.180Z,92.00
2023-02-13T08:13:01.154Z,91.60
2023-02-13T08:15:28.357Z,91.60
2023-02-13T08:17:55.509Z,91.50
2023-02-13T08:20:22.541Z,91.40
2023-02-13T08:22:49.650Z,90.90
2023-02-13T08:25:17.042Z,90.60
2023-02-13T08:27:44.138Z,90.40
2023-02-13T08:30:11.751Z,90.40
2023-02-13T08:32:53.026Z,90.50
2023-02-13T08:35:21.666Z,90.60
2023-02-13T08:37:48.877Z,90.60
2023-02-13T08:40:15.915Z,90.30
2023-02-13T08:42:43.884Z,89.90
2023-02-13T08:45:11.995Z,89.80
2023-02-13T08:47:40.224Z,89.60
2023-02-13T08:50:08.004Z,89.60
2023-02-13T08:52:35.453Z,89.20
2023-02-13T08:55:05.463Z,88.60
2023-02-13T08:57:32.698Z,88.00
2023-02-13T08:59:59.757Z,88.20
2023-02-13T09:02:26.844Z,87.70
2023-02-13T09:04:54.069Z,87.80
2023-02-13T09:07:21.265Z,87.90
2023-02-13T09:09:48.356Z,87.60
2023-02-13T09:12:15.387Z,87.70
2023-02-13T09:14:42.557Z,88.20
2023-02-13T09:17:09.597Z,89.30
2023-02-13T09:19:36.768Z,90.10
2023-02-13T09:22:03.898Z,90.40
2023-02-13T09:24:30.945Z,90.30
2023-02-13T09:26:58.247Z,90.50
2023-02-13T09:29:25.342Z,90.60
2023-02-13T09:31:53.038Z,90.60
2023-02-13T09:34:20.204Z,90.40
2023-02-13T09:36:51.269Z,90.20
2023-02-13T09:39:18.343Z,90.80
2023-02-13T09:41:47.646Z,90.40
2023-02-13T09:44:35.132Z,90.30
2023-02-13T09:47:15.122Z,90.40
2023-02-13T09:49:47.289Z,90.60
2023-02-13T09:52:15.177Z,90.40
2023-02-13T09:54:42.400Z,90.40
2023-02-13T09:57:32.128Z,90.40
2023-02-13T10:00:26.568Z,90.50
2023-02-13T10:03:14.452Z,90.40
2023-02-13T10:05:53.785Z,90.60
2023-02-13T10:08:49.811Z,90.60
2023-02-13T10:11:38.004Z,90.70
2023-02-13T10:14:13.665Z,90.50
2023-02-13T10:17:04.353Z,90.30
2023-02-13T10:19:51.983Z,90.60
2023-02-13T10:22:24.149Z,90.40
2023-02-13T10:24:55.082Z,90.10
2023-02-13T10:27:23.983Z,90.60
2023-02-13T10:30:06.888Z,90.10
2023-02-13T10:33:16.593Z,90.30
2023-02-13T10:36:04.784Z,90.60
2023-02-13T10:38:34.291Z,90.80
2023-02-13T10:41:22.330Z,90.40
2023-02-13T10:44:11.197Z,90.20
2023-02-13T10:47:01.173Z,90.10
2023-02-13T10:49:51.621Z,90.70
2023-02-13T10:52:39.861Z,90.40
2023-02-13T10:55:15.620Z,90.40
2023-02-13T10:58:18.911Z,90.40
2023-02-13T11:00:54.905Z,90.10
2023-02-13T11:03:27.752Z,90.20
2023-02-13T11:05:57.409Z,89.80
2023-02-13T11:08:46.255Z,90.40
2023-02-13T11:11:31.798Z,90.30
2023-02-13T11:14:13.994Z,90.40
2023-02-13T11:16:55.388Z,90.00
2023-02-13T11:19:33.785Z,90.10
2023-02-13T11:22:08.966Z,90.10
2023-02-13T11:24:37.042Z,89.00
2023-02-13T11:27:09.509Z,89.40
2023-02-13T11:29:38.342Z,90.10
2023-02-13T11:32:15.242Z,89.60
2023-02-13T11:34:42.727Z,88.50
2023-02-13T11:37:12.727Z,87.30
2023-02-13T11:39:45.302Z,88.60
2023-02-13T11:42:21.633Z,88.60
2023-02-13T11:45:03.169Z,88.00
2023-02-13T11:47:36.876Z,86.60
2023-02-13T11:50:05.465Z,87.60
2023-02-13T11:52:35.621Z,87.80
2023-02-13T11:55:06.025Z,87.70
2023-02-13T11:57:37.561Z,87.30
2023-02-13T12:00:28.311Z,85.70
2023-02-13T12:02:55.475Z,85.40
2023-02-13T12:05:26.050Z,85.90
2023-02-13T12:07:59.746Z,86.90
2023-02-13T12:10:32.641Z,86.90
2023-02-13T12:13:07.605Z,87.70
2023-02-13T12:15:36.701Z,86.80
2023-02-13T12:18:25.253Z,87.00
2023-02-13T12:20:52.148Z,86.70
2023-02-13T12:23:45.303Z,86.00
2023-02-13T12:26:39.644Z,86.30
2023-02-13T12:29:29.960Z,87.10
2023-02-13T12:32:18.942Z,87.80
2023-02-13T12:35:01.350Z,86.60
2023-02-13T12:37:37.304Z,86.00
2023-02-13T12:40:41.940Z,86.00
2023-02-13T12:43:36.733Z,86.70
2023-02-13T12:46:42.787Z,86.10
2023-02-13T12:49:43.166Z,85.90
2023-02-13T12:52:16.518Z,85.30
2023-02-13T12:54:56.152Z,85.50
2023-02-13T12:57:29.258Z,87.00
2023-02-13T13:00:15.943Z,86.60
2023-02-13T13:03:13.512Z,86.10
2023-02-13T13:06:10.979Z,86.30
2023-02-13T13:08:49.901Z,86.70
2023-02-13T13:11:51.031Z,85.80
2023-02-13T13:14:24.014Z,85.40
2023-02-13T13:17:04.233Z,85.20
2023-02-13T13:19:54.372Z,85.20
2023-02-13T13:23:00.534Z,85.20
2023-02-13T13:25:30.447Z,86.90
2023-02-13T13:28:05.630Z,86.90
2023-02-13T13:30:36.052Z,86.50
2023-02-13T13:33:14.122Z,86.60
2023-02-13T13:36:06.459Z,86.30
2023-02-13T13:38:52.377Z,85.00
2023-02-13T13:41:28.139Z,85.20
2023-02-13T13:44:24.012Z,86.60
2023-02-13T13:47:00.184Z,87.10
2023-02-13T13:49:35.827Z,87.00
2023-02-13T13:52:27.653Z,87.40
2023-02-13T13:54:56.126Z,86.70
2023-02-13T13:57:43.455Z,86.00
2023-02-13T14:00:13.608Z,87.30
2023-02-13T14:02:45.427Z,87.30
2023-02-13T14:05:33.504Z,86.10
2023-02-13T14:08:22.117Z,86.10
2023-02-13T14:11:01.841Z,86.60
2023-02-13T14:13:40.032Z,86.70
2023-02-13T14:16:11.662Z,86.70
2023-02-13T14:18:44.502Z,87.70
2023-02-13T14:21:12.888Z,87.40
2023-02-13T14:23:42.641Z,88.40
2023-02-13T14:26:15.677Z,87.20
2023-02-13T14:28:51.839Z,88.10
2023-02-13T14:31:25.433Z,88.40
2023-02-13T14:34:06.101Z,88.40
2023-02-13T14:36:36.170Z,88.40
2023-02-13T14:39:05.218Z,88.40
2023-02-13T14:41:54.294Z,87.80
2023-02-13T14:44:38.062Z,87.70
2023-02-13T14:47:43.103Z,88.60
2023-02-13T14:50:19.977Z,88.00
2023-02-13T14:52:48.564Z,88.30
2023-02-13T14:55:18.332Z,89.20
2023-02-13T14:57:59.810Z,89.70
2023-02-13T15:00:35.055Z,89.50
2023-02-13T15:03:08.347Z,89.70
2023-02-13T15:05:36.682Z,90.00
2023-02-13T15:08:15.086Z,90.10
2023-02-13T15:10:51.141Z,90.60
2023-02-13T15:13:33.756Z,90.30
2023-02-13T15:16:14.794Z,90.40
2023-02-13T15:18:52.737Z,90.80
2023-02-13T15:21:26.122Z,91.10
2023-02-13T15:23:57.738Z,91.20
2023-02-13T15:26:28.828Z,91.20
2023-02-13T15:29:01.596Z,91.40
2023-02-13T15:31:35.078Z,91.40
2023-02-13T15:34:02.909Z,91.20
2023-02-13T15:36:42.546Z,91.40
2023-02-13T15:39:20.736Z,91.70
2023-02-13T15:42:00.198Z,91.80
2023-02-13T15:44:30.514Z,91.90
2023-02-13T15:47:18.148Z,92.10
2023-02-13T15:49:47.602Z,92.00
2023-02-13T15:52:34.255Z,92.30
2023-02-13T15:55:07.450Z,92.50
2023-02-13T15:57:35.117Z,92.60
2023-02-13T16:00:04.298Z,92.70
2023-02-13T16:02:46.279Z,92.90
2023-02-13T16:05:19.961Z,93.00
2023-02-13T16:08:03.328Z,93.40
2023-02-13T16:10:35.863Z,93.50
2023-02-13T16:13:08.171Z,93.40
2023-02-13T16:15:37.195Z,93.40
2023-02-13T16:18:06.465Z,93.60
2023-02-13T16:20:35.263Z,93.80
2023-02-13T16:23:05.736Z,93.90
2023-02-13T16:25:37.280Z,94.10
2023-02-13T16:28:18.362Z,94.10
2023-02-13T16:30:59.470Z,94.20
2023-02-13T16:33:34.417Z,94.20
2023-02-13T16:36:10.386Z,94.30
2023-02-13T16:38:43.090Z,94.40
2023-02-13T16:41:22.358Z,94.40
2023-02-13T16:44:03.306Z,94.50
2023-02-13T16:46:49.511Z,94.50
2023-02-13T16:49:28.277Z,94.50
2023-02-13T16:52:11.607Z,94.30
2023-02-13T16:54:44.589Z,94.20
2023-02-13T16:57:14.421Z,94.40
2023-02-13T16:59:47.736Z,94.40
2023-02-13T17:02:23.755Z,94.60
2023-02-13T17:04:53.979Z,94.80
2023-02-13T17:07:33.922Z,94.80
2023-02-13T17:10:07.117Z,94.80
2023-02-13T17:12:39.074Z,94.90
2023-02-13T17:15:12.533Z,94.90
2023-02-13T17:17:40.449Z,95.20
2023-02-13T17:20:08.982Z,95.30
2023-02-13T17:22:42.397Z,95.20
2023-02-13T17:25:17.858Z,95.30
2023-02-13T17:27:45.316Z,95.40
2023-02-13T17:30:35.817Z,95.40
2023-02-13T17:33:10.538Z,95.60
2023-02-13T17:35:37.698Z,95.60
2023-02-13T17:38:06.374Z,95.70
2023-02-13T17:40:33.620Z,95.70
2023-02-13T17:43:01.133Z,95.80
2023-02-13T17:45:31.655Z,95.70
2023-02-13T17:47:58.763Z,95.80
2023-02-13T17:50:30.304Z,95.70
2023-02-13T17:52:57.758Z,95.80
2023-02-13T17:55:27.676Z,95.80
2023-02-13T17:57:59.224Z,95.90
2023-02-13T18:00:32.780Z,96.00
2023-02-13T18:03:01.202Z,95.90
2023-02-13T20:38:53.350Z,96.10
2023-02-13T20:41:23.573Z,96.70
2023-02-13T20:43:51.280Z,96.60
2023-02-13T20:46:19.200Z,96.50
2023-02-13T20:48:48.405Z,96.40
2023-02-13T20:51:22.354Z,96.40
2023-02-13T20:53:49.454Z,96.40
2023-02-13T20:56:17.933Z,96.40
2023-02-13T20:58:46.590Z,96.40
2023-02-13T21:01:25.388Z,96.30
2023-02-13T21:04:00.697Z,96.30
2023-02-13T21:06:29.669Z,96.30
2023-02-13T21:08:56.765Z,96.30
2023-02-13T21:11:24.787Z,96.20
2023-02-13T21:13:52.097Z,96.10
2023-02-13T21:19:25.813Z,96.10
2023-02-13T21:22:36.994Z,96.30
2023-02-13T21:25:04.240Z,96.30
2023-02-13T21:27:31.181Z,96.40
2023-02-13T21:29:58.479Z,96.40
2023-02-13T21:32:25.582Z,96.70
2023-02-13T21:34:55.861Z,96.40
2023-02-13T21:37:22.909Z,96.30
2023-02-13T21:39:50.061Z,96.30
2023-02-13T21:42:17.114Z,96.30
2023-02-13T21:44:44.082Z,96.20
2023-02-13T21:47:11.259Z,96.20
2023-02-13T21:49:38.279Z,96.30
2023-02-13T21:52:05.398Z,96.30
2023-02-13T21:54:32.497Z,96.30
2023-02-13T21:56:59.542Z,96.30
2023-02-13T21:59:26.694Z,96.40
2023-02-13T22:01:54.764Z,96.40
2023-02-13T22:04:22.069Z,96.20
2023-02-13T22:06:51.367Z,96.20
2023-02-13T22:09:20.056Z,96.30
2023-02-13T22:11:47.361Z,96.10
2023-02-13T22:14:17.357Z,96.10
2023-02-13T22:16:45.879Z,96.00
2023-02-13T22:19:15.166Z,96.00
2023-02-13T22:21:42.349Z,95.90
2023-02-13T22:24:09.813Z,95.70
2023-02-13T22:26:39.211Z,95.70
2023-02-13T22:29:11.326Z,95.70
2023-02-13T22:31:39.076Z,95.80
2023-02-13T22:34:07.063Z,95.90
2023-02-13T22:36:38.622Z,95.90
2023-02-13T22:39:06.271Z,96.00
2023-02-13T22:41:33.844Z,96.00
2023-02-13T22:44:00.932Z,96.20
2023-02-13T22:46:30.986Z,96.60
2023-02-13T22:48:59.130Z,96.80
2023-02-13T22:51:32.112Z,97.10
2023-02-13T22:54:00.023Z,96.50
2023-02-13T22:56:28.484Z,96.90
2023-02-13T22:58:55.637Z,96.70
2023-02-13T23:01:24.470Z,96.70
2023-02-13T23:03:51.885Z,96.50
2023-02-13T23:06:20.060Z,96.40
2023-02-13T23:08:52.413Z,96.20
2023-02-13T23:11:40.003Z,95.70
2023-02-13T23:14:07.092Z,95.50
2023-02-13T23:16:54.127Z,95.40
2023-02-13T23:19:21.780Z,95.60
2023-02-13T23:21:49.280Z,96.10
2023-02-13T23:24:16.326Z,95.70
2023-02-13T23:26:43.709Z,95.70
2023-02-13T23:29:11.043Z,95.80
2023-02-13T23:31:38.158Z,95.70
2023-02-13T23:34:05.228Z,95.70
2023-02-13T23:36:32.329Z,95.70
2023-02-13T23:38:59.266Z,95.70
2023-02-13T23:41:26.321Z,95.70
2023-02-13T23:43:53.419Z,95.90
2023-02-13T23:46:20.458Z,96.00
2023-02-13T23:48:47.609Z,96.00
2023-02-13T23:51:14.715Z,96.00
2023-02-13T23:53:41.760Z,95.90
2023-02-13T23:56:08.796Z,96.10
2023-02-13T23:58:35.899Z,96.40
